Time;durP1;ratioP1;P1;durP2;ratioP2;P2;SDS_P1;SDS_P2;PMS_P1;PMS_P2;Temp;Humidity;BMP_temperature;BMP_pressure;BME280_temperature;BME280_humidity;BME280_pressure;Samples;Min_cycle;Max_cycle;Signal;HPM_P1;HPM_P2
2023/12/31 00:00:28;;;;;;;1.95;0.43;;;9.70;99.90;;;;;;4966992;28;20379;-74
2023/12/31 00:02:53;;;;;;;3.58;0.30;;;9.70;99.90;;;;;;4966933;28;20574;-74
2023/12/31 00:05:19;;;;;;;3.28;1.02;;;9.60;99.90;;;;;;4966558;28;20027;-74
2023/12/31 00:07:45;;;;;;;1.90;0.30;;;9.70;99.90;;;;;;4959607;28;20032;-76
2023/12/31 00:10:11;;;;;;;0.88;0.30;;;9.60;99.90;;;;;;4951103;28;20023;-75
2023/12/31 00:12:37;;;;;;;0.70;0.30;;;9.60;99.90;;;;;;4967239;28;20505;-75
2023/12/31 00:15:04;;;;;;;1.38;0.40;;;9.70;99.90;;;;;;4951404;28;20043;-75
2023/12/31 00:17:30;;;;;;;1.23;0.77;;;9.70;99.90;;;;;;4949520;28;20028;-75
2023/12/31 00:19:55;;;;;;;1.23;0.20;;;9.80;99.90;;;;;;4949893;28;20078;-75
2023/12/31 00:22:21;;;;;;;0.85;0.30;;;9.80;99.90;;;;;;4947158;28;20031;-75
2023/12/31 00:24:47;;;;;;;4.90;0.60;;;9.80;99.90;;;;;;4957092;28;20050;-73
2023/12/31 00:27:12;;;;;;;0.52;0.20;;;9.70;99.90;;;;;;4953336;28;20039;-74
2023/12/31 00:29:38;;;;;;;0.60;0.15;;;9.80;99.90;;;;;;4947372;28;20036;-73
2023/12/31 00:32:04;;;;;;;0.73;0.20;;;9.70;99.90;;;;;;4962170;28;20435;-74
2023/12/31 00:34:29;;;;;;;1.40;0.20;;;9.70;99.90;;;;;;4950485;28;20039;-73
2023/12/31 00:36:55;;;;;;;1.15;0.38;;;9.70;99.90;;;;;;4950740;28;20102;-73
2023/12/31 00:39:21;;;;;;;0.95;0.20;;;9.70;99.90;;;;;;4948027;28;20043;-73
2023/12/31 00:41:46;;;;;;;0.88;0.40;;;9.60;99.90;;;;;;4954387;28;20043;-74
2023/12/31 00:44:12;;;;;;;1.75;0.40;;;9.70;99.90;;;;;;4947634;28;20054;-73
2023/12/31 00:46:37;;;;;;;2.25;0.20;;;9.60;99.90;;;;;;4952907;28;20037;-73
2023/12/31 00:49:03;;;;;;;3.05;0.30;;;9.70;99.90;;;;;;4957339;28;20059;-73
2023/12/31 00:51:29;;;;;;;0.75;0.17;;;9.70;99.90;;;;;;4959678;28;20035;-73
2023/12/31 00:53:54;;;;;;;1.48;0.20;;;9.70;99.90;;;;;;4958519;28;20741;-74
2023/12/31 00:56:20;;;;;;;1.20;0.32;;;9.70;99.90;;;;;;4953687;28;20411;-74
2023/12/31 00:58:45;;;;;;;1.42;0.30;;;9.70;99.90;;;;;;4958000;28;20058;-73
2023/12/31 01:01:11;;;;;;;1.63;0.20;;;9.60;99.90;;;;;;4954768;28;20047;-74
2023/12/31 01:03:36;;;;;;;2.65;0.20;;;9.60;99.90;;;;;;4968659;28;20047;-73
2023/12/31 01:06:06;;;;;;;3.40;0.50;;;9.60;99.90;;;;;;4963109;28;20122;-73
2023/12/31 01:08:32;;;;;;;0.85;0.30;;;9.60;99.90;;;;;;4949425;28;20122;-73
2023/12/31 01:10:58;;;;;;;4.03;0.40;;;9.50;99.90;;;;;;4960123;28;20129;-73
2023/12/31 01:13:23;;;;;;;1.75;0.30;;;9.50;99.90;;;;;;4963379;28;20782;-73
2023/12/31 01:15:49;;;;;;;1.10;0.40;;;9.50;99.90;;;;;;4962265;28;20043;-73
2023/12/31 01:18:14;;;;;;;1.17;0.30;;;9.50;99.90;;;;;;4966724;28;20035;-74
2023/12/31 01:20:40;;;;;;;1.88;0.52;;;9.50;99.90;;;;;;4961695;28;20057;-73
2023/12/31 01:23:05;;;;;;;3.50;0.43;;;9.50;99.90;;;;;;4953263;28;20517;-74
2023/12/31 01:25:31;;;;;;;0.60;0.30;;;9.50;99.90;;;;;;4953423;28;20106;-74
2023/12/31 01:27:57;;;;;;;6.60;0.30;;;9.50;99.90;;;;;;4948843;28;20027;-75
2023/12/31 01:30:23;;;;;;;1.48;0.30;;;9.50;99.90;;;;;;4965031;28;20046;-73
2023/12/31 01:32:50;;;;;;;0.93;0.30;;;9.50;99.90;;;;;;4953822;28;20046;-74
2023/12/31 01:35:16;;;;;;;0.45;0.20;;;9.50;99.90;;;;;;4950509;28;20387;-73
2023/12/31 01:37:42;;;;;;;1.90;0.28;;;9.50;99.90;;;;;;4951480;28;20369;-74
2023/12/31 01:40:08;;;;;;;6.47;0.40;;;9.50;99.90;;;;;;4959323;28;20062;-74
2023/12/31 01:42:34;;;;;;;2.22;0.60;;;9.50;99.90;;;;;;4962196;28;20042;-73
2023/12/31 01:44:59;;;;;;;1.05;0.30;;;9.50;99.90;;;;;;4964402;28;20039;-73
2023/12/31 01:47:25;;;;;;;1.67;0.38;;;9.50;99.90;;;;;;4964430;28;20052;-73
2023/12/31 01:49:51;;;;;;;4.03;0.40;;;9.50;99.90;;;;;;4950846;28;20151;-73
2023/12/31 01:52:18;;;;;;;1.70;0.47;;;9.40;99.90;;;;;;4958955;28;20454;-74
2023/12/31 01:54:43;;;;;;;0.82;0.30;;;9.50;99.90;;;;;;4960572;28;20090;-73
2023/12/31 01:57:11;;;;;;;4.68;0.50;;;9.50;99.90;;;;;;4953666;28;20090;-74
2023/12/31 01:59:37;;;;;;;1.90;0.40;;;9.50;99.90;;;;;;4959995;28;20535;-73
2023/12/31 02:02:03;;;;;;;1.15;0.65;;;9.60;99.90;;;;;;4961144;28;20058;-74
2023/12/31 02:04:33;;;;;;;2.60;0.30;;;9.60;99.90;;;;;;4949465;28;20504;-74
2023/12/31 02:07:02;;;;;;;2.40;0.43;;;9.60;99.90;;;;;;4947837;28;20130;-74
2023/12/31 02:09:29;;;;;;;1.73;0.30;;;9.60;99.90;;;;;;4952444;28;20067;-74
2023/12/31 02:11:55;;;;;;;2.65;0.32;;;9.60;99.90;;;;;;4952843;28;20066;-72
2023/12/31 02:14:21;;;;;;;1.80;0.30;;;9.60;99.90;;;;;;4956611;28;20043;-73
2023/12/31 02:16:46;;;;;;;3.42;0.47;;;9.60;99.90;;;;;;4967247;28;20406;-74
2023/12/31 02:19:12;;;;;;;1.02;0.20;;;9.70;99.90;;;;;;4967015;28;20074;-73
2023/12/31 02:21:38;;;;;;;2.05;0.20;;;9.70;99.90;;;;;;4961712;28;20035;-73
2023/12/31 02:24:03;;;;;;;1.42;0.43;;;9.70;99.90;;;;;;4969070;28;20042;-75
2023/12/31 02:26:31;;;;;;;5.07;0.88;;;9.70;99.90;;;;;;4955597;28;20496;-74
2023/12/31 02:28:57;;;;;;;0.98;0.20;;;9.70;99.90;;;;;;4958195;28;20035;-73
2023/12/31 02:31:22;;;;;;;1.55;0.40;;;9.70;99.90;;;;;;4963146;28;20053;-73
2023/12/31 02:33:48;;;;;;;1.90;0.30;;;9.70;99.90;;;;;;4967895;28;20169;-73
2023/12/31 02:36:13;;;;;;;3.33;1.02;;;9.60;99.90;;;;;;4954819;28;20046;-73
2023/12/31 02:38:39;;;;;;;0.73;0.15;;;9.60;99.90;;;;;;4953744;28;20035;-73
2023/12/31 02:41:04;;;;;;;0.75;0.15;;;9.60;99.90;;;;;;4962387;28;20046;-73
2023/12/31 02:43:30;;;;;;;2.58;0.10;;;9.60;99.90;;;;;;4949738;28;20035;-74
2023/12/31 02:45:55;;;;;;;2.38;0.10;;;9.60;99.90;;;;;;4948966;28;20043;-74
2023/12/31 02:48:21;;;;;;;2.55;0.30;;;9.50;99.90;;;;;;4952637;28;20522;-74
2023/12/31 02:50:47;;;;;;;4.45;0.52;;;9.60;99.90;;;;;;4948170;29;20035;-73
2023/12/31 02:53:12;;;;;;;0.95;0.30;;;9.50;99.90;;;;;;4946170;28;20058;-73
2023/12/31 02:55:38;;;;;;;4.57;0.43;;;9.50;99.90;;;;;;4948341;28;20031;-74
2023/12/31 02:58:03;;;;;;;1.08;0.20;;;9.50;99.90;;;;;;4955125;28;20118;-74
2023/12/31 03:00:29;;;;;;;1.67;0.30;;;9.50;99.90;;;;;;4949081;28;20110;-74
2023/12/31 03:02:54;;;;;;;1.33;0.32;;;9.50;99.90;;;;;;4955670;28;20031;-73
2023/12/31 03:05:20;;;;;;;1.23;0.30;;;9.50;99.90;;;;;;4966676;28;20122;-73
2023/12/31 03:07:46;;;;;;;0.52;0.15;;;9.50;99.90;;;;;;4957856;28;20032;-74
2023/12/31 03:10:11;;;;;;;0.50;0.20;;;9.50;99.90;;;;;;4960069;28;20066;-74
2023/12/31 03:12:37;;;;;;;1.17;0.20;;;9.50;99.90;;;;;;4948015;28;20082;-74
2023/12/31 03:15:03;;;;;;;0.65;0.20;;;9.50;99.90;;;;;;4949593;28;20463;-72
2023/12/31 03:17:29;;;;;;;0.90;0.30;;;9.50;99.90;;;;;;4955154;28;20039;-72
2023/12/31 03:19:55;;;;;;;0.82;0.17;;;9.50;99.90;;;;;;4951291;28;20110;-74
2023/12/31 03:22:20;;;;;;;1.33;0.40;;;9.60;99.90;;;;;;4946145;28;20050;-75
2023/12/31 03:24:46;;;;;;;0.63;0.25;;;9.50;99.90;;;;;;4948034;28;20086;-73
2023/12/31 03:27:11;;;;;;;2.65;0.30;;;9.60;99.90;;;;;;4956739;28;20045;-74
2023/12/31 03:29:37;;;;;;;1.20;0.65;;;9.50;99.90;;;;;;4950825;28;20050;-75
2023/12/31 03:32:04;;;;;;;0.68;0.20;;;9.60;99.90;;;;;;4954479;28;20049;-72
2023/12/31 03:34:29;;;;;;;2.17;0.73;;;9.50;99.90;;;;;;4966444;28;20118;-72
2023/12/31 03:36:55;;;;;;;1.50;0.40;;;9.50;99.90;;;;;;4961294;28;20126;-74
2023/12/31 03:39:21;;;;;;;1.13;0.30;;;9.50;99.90;;;;;;4957894;28;20119;-73
2023/12/31 03:41:48;;;;;;;0.98;0.30;;;9.50;99.90;;;;;;4949442;28;20042;-72
2023/12/31 03:44:14;;;;;;;1.08;0.60;;;9.50;99.90;;;;;;4947910;28;20074;-73
2023/12/31 03:46:39;;;;;;;0.75;0.25;;;9.50;99.90;;;;;;4951489;28;20458;-74
2023/12/31 03:49:05;;;;;;;1.73;1.02;;;9.50;99.90;;;;;;4946601;28;20077;-74
2023/12/31 03:51:30;;;;;;;1.13;0.40;;;9.50;99.90;;;;;;4947178;28;20130;-75
2023/12/31 03:53:56;;;;;;;1.42;0.25;;;9.50;99.90;;;;;;4957023;28;20039;-75
2023/12/31 03:56:22;;;;;;;3.10;0.35;;;9.40;99.90;;;;;;4950384;28;20042;-74
2023/12/31 03:58:47;;;;;;;0.88;0.32;;;9.40;99.90;;;;;;4966320;28;20063;-74
2023/12/31 04:01:13;;;;;;;4.57;0.45;;;9.40;99.90;;;;;;4961717;28;20043;-73
2023/12/31 04:03:39;;;;;;;1.20;0.20;;;9.40;99.90;;;;;;4953724;28;20046;-74
2023/12/31 04:06:07;;;;;;;1.33;0.20;;;9.40;99.90;;;;;;4948668;28;20035;-73
2023/12/31 04:08:33;;;;;;;0.88;0.20;;;9.40;99.90;;;;;;4955547;28;20458;-74
2023/12/31 04:10:58;;;;;;;1.90;0.30;;;9.40;99.90;;;;;;4955958;28;20090;-73
2023/12/31 04:13:24;;;;;;;0.98;0.40;;;9.50;99.90;;;;;;4957235;28;20043;-74
2023/12/31 04:15:50;;;;;;;1.88;0.28;;;9.50;99.90;;;;;;4947457;28;20045;-73
2023/12/31 04:18:16;;;;;;;1.00;0.40;;;9.40;99.90;;;;;;4949960;28;20073;-74
2023/12/31 04:20:42;;;;;;;1.15;0.43;;;9.50;99.90;;;;;;4947202;28;20085;-73
2023/12/31 04:23:08;;;;;;;0.40;0.28;;;9.40;99.90;;;;;;4949005;28;20046;-73
2023/12/31 04:25:33;;;;;;;2.88;0.68;;;9.40;99.90;;;;;;4956647;28;20661;-73
2023/12/31 04:27:59;;;;;;;0.47;0.20;;;9.40;99.90;;;;;;4955544;28;20043;-75
2023/12/31 04:30:25;;;;;;;1.58;0.20;;;9.40;99.90;;;;;;4966939;28;20431;-73
2023/12/31 04:32:51;;;;;;;1.08;0.40;;;9.40;99.90;;;;;;4955681;28;20039;-73
2023/12/31 04:35:17;;;;;;;1.92;1.00;;;9.40;99.90;;;;;;4969003;28;20031;-73
2023/12/31 04:37:42;;;;;;;0.73;0.30;;;9.40;99.90;;;;;;4959661;28;20491;-73
2023/12/31 04:40:08;;;;;;;0.63;0.35;;;9.40;99.90;;;;;;4953736;28;20054;-73
2023/12/31 04:42:34;;;;;;;2.03;0.77;;;9.50;99.90;;;;;;4950539;28;20031;-74
2023/12/31 04:45:04;;;;;;;1.10;0.22;;;9.50;99.90;;;;;;4964005;28;20090;-73
2023/12/31 04:47:30;;;;;;;0.98;0.30;;;9.50;99.90;;;;;;4969138;28;20027;-74
2023/12/31 04:49:56;;;;;;;1.55;0.22;;;9.50;99.90;;;;;;4967086;28;20105;-74
2023/12/31 04:52:21;;;;;;;1.77;0.88;;;9.60;99.90;;;;;;4957102;28;20125;-73
2023/12/31 04:54:47;;;;;;;1.35;0.77;;;9.50;99.90;;;;;;4963484;28;20483;-74
2023/12/31 04:57:12;;;;;;;7.22;0.95;;;9.50;99.90;;;;;;4950909;28;20196;-74
2023/12/31 04:59:39;;;;;;;2.42;0.40;;;9.60;99.90;;;;;;4956912;28;20050;-73
2023/12/31 05:02:05;;;;;;;0.63;0.13;;;9.60;99.90;;;;;;4961341;28;20097;-74
2023/12/31 05:04:31;;;;;;;2.20;0.57;;;9.60;99.90;;;;;;4967596;28;20042;-73
2023/12/31 05:06:58;;;;;;;0.57;0.30;;;9.60;99.90;;;;;;4952415;28;20472;-73
2023/12/31 05:09:24;;;;;;;0.65;0.30;;;9.60;99.90;;;;;;4957195;28;20035;-73
2023/12/31 05:11:49;;;;;;;1.05;0.40;;;9.60;99.90;;;;;;4951997;28;20031;-74
2023/12/31 05:14:15;;;;;;;1.00;0.40;;;9.70;99.90;;;;;;4960951;28;20073;-73
2023/12/31 05:16:41;;;;;;;1.08;0.45;;;9.60;99.90;;;;;;4957568;28;20038;-74
2023/12/31 05:19:06;;;;;;;1.55;0.40;;;9.70;99.90;;;;;;4968768;28;20043;-73
2023/12/31 05:21:32;;;;;;;0.77;0.43;;;9.80;99.90;;;;;;4964929;28;20037;-74
2023/12/31 05:23:58;;;;;;;0.20;0.20;;;9.80;99.90;;;;;;4965632;28;20563;-74
2023/12/31 05:26:23;;;;;;;1.15;0.40;;;9.80;99.90;;;;;;4950174;28;20058;-73
2023/12/31 05:28:49;;;;;;;0.70;0.25;;;9.80;99.90;;;;;;4962503;28;20047;-74
2023/12/31 05:31:14;;;;;;;3.55;0.85;;;9.80;99.90;;;;;;4952991;28;20084;-73
2023/12/31 05:33:44;;;;;;;2.05;0.55;;;9.80;99.90;;;;;;4963250;28;20035;-73
2023/12/31 05:36:10;;;;;;;2.70;0.52;;;9.80;99.90;;;;;;4951106;28;20046;-72
2023/12/31 05:38:36;;;;;;;1.00;0.40;;;9.80;99.90;;;;;;4962220;28;20034;-73
2023/12/31 05:41:02;;;;;;;4.72;1.23;;;9.90;99.90;;;;;;4970565;28;20034;-73
2023/12/31 05:43:27;;;;;;;1.65;0.30;;;9.90;99.90;;;;;;4961378;28;20043;-73
2023/12/31 05:45:53;;;;;;;1.25;0.47;;;9.90;99.90;;;;;;4964789;28;20043;-74
2023/12/31 05:48:19;;;;;;;1.17;0.50;;;9.90;99.90;;;;;;4964886;28;20031;-73
2023/12/31 05:50:46;;;;;;;3.45;0.52;;;10.00;99.90;;;;;;4958532;28;20037;-73
2023/12/31 05:53:12;;;;;;;1.00;0.30;;;10.00;99.90;;;;;;4965783;28;20532;-73
2023/12/31 05:55:37;;;;;;;1.52;0.60;;;10.00;99.90;;;;;;4960572;28;20121;-73
2023/12/31 05:58:03;;;;;;;1.63;0.40;;;10.00;99.90;;;;;;4966230;28;20039;-73
2023/12/31 06:00:28;;;;;;;2.10;0.70;;;9.90;99.90;;;;;;4948741;28;20163;-75
2023/12/31 06:02:54;;;;;;;1.05;0.40;;;9.90;99.90;;;;;;4955861;28;20050;-72
2023/12/31 06:05:20;;;;;;;2.53;0.52;;;10.00;99.90;;;;;;4948296;28;20403;-75
2023/12/31 06:07:45;;;;;;;1.23;0.40;;;9.90;99.90;;;;;;4951630;28;20035;-74
2023/12/31 06:10:11;;;;;;;2.78;0.50;;;10.00;99.90;;;;;;4954452;28;20039;-75
2023/12/31 06:12:36;;;;;;;2.05;0.50;;;10.00;99.90;;;;;;4949347;28;20047;-73
2023/12/31 06:15:09;;;;;;;1.08;0.55;;;9.90;99.90;;;;;;4954765;28;20034;-72
2023/12/31 06:17:35;;;;;;;1.50;0.40;;;9.90;99.90;;;;;;4956623;28;20045;-73
2023/12/31 06:20:01;;;;;;;0.90;0.50;;;9.80;99.90;;;;;;4964763;28;20035;-72
2023/12/31 06:22:27;;;;;;;1.50;0.95;;;9.90;99.90;;;;;;4953885;28;20035;-73
2023/12/31 06:24:52;;;;;;;1.13;0.52;;;9.90;99.90;;;;;;4953924;28;20387;-73
2023/12/31 06:27:18;;;;;;;0.85;0.30;;;9.80;99.90;;;;;;4950521;28;20039;-73
2023/12/31 06:29:43;;;;;;;0.90;0.30;;;9.90;99.90;;;;;;4960496;28;20035;-74
2023/12/31 06:32:09;;;;;;;1.30;0.68;;;9.90;99.90;;;;;;4964472;28;20042;-73
2023/12/31 06:34:34;;;;;;;4.65;0.60;;;9.90;99.90;;;;;;4955464;28;20569;-74
2023/12/31 06:37:00;;;;;;;1.88;0.50;;;9.90;99.90;;;;;;4961883;28;20035;-73
2023/12/31 06:39:26;;;;;;;1.83;0.63;;;9.90;99.90;;;;;;4947535;28;20051;-73
2023/12/31 06:41:52;;;;;;;2.13;0.52;;;9.90;99.90;;;;;;4953424;28;20039;-73
2023/12/31 06:44:17;;;;;;;0.95;0.38;;;9.80;99.90;;;;;;4949888;28;20067;-73
2023/12/31 06:46:43;;;;;;;0.57;0.50;;;9.80;99.90;;;;;;4956446;28;20072;-74
2023/12/31 06:49:08;;;;;;;1.90;0.55;;;9.80;99.90;;;;;;4950984;28;20036;-74
2023/12/31 06:51:34;;;;;;;4.22;0.60;;;9.80;99.90;;;;;;4950089;28;20464;-73
2023/12/31 06:53:59;;;;;;;1.50;0.50;;;9.80;99.90;;;;;;4948750;28;20043;-73
2023/12/31 06:56:25;;;;;;;2.25;0.47;;;9.80;99.90;;;;;;4947528;28;20564;-73
2023/12/31 06:58:51;;;;;;;2.08;0.60;;;9.90;99.90;;;;;;4954217;28;20035;-73
2023/12/31 07:01:16;;;;;;;1.13;0.52;;;9.90;99.90;;;;;;4958625;28;20503;-73
2023/12/31 07:03:43;;;;;;;0.65;0.30;;;10.00;99.90;;;;;;4963908;28;20395;-73
2023/12/31 07:06:09;;;;;;;1.15;0.52;;;9.90;99.90;;;;;;4966740;28;20039;-74
2023/12/31 07:08:34;;;;;;;0.80;0.43;;;9.90;99.90;;;;;;4948301;28;20035;-73
2023/12/31 07:11:00;;;;;;;1.65;0.63;;;9.90;99.90;;;;;;4948387;28;20118;-73
2023/12/31 07:13:26;;;;;;;1.67;0.70;;;9.90;99.90;;;;;;4955445;28;20070;-74
2023/12/31 07:15:51;;;;;;;1.73;0.52;;;10.00;99.90;;;;;;4961337;28;20030;-73
2023/12/31 07:18:17;;;;;;;3.92;0.47;;;9.90;99.90;;;;;;4967588;28;20402;-73
2023/12/31 07:20:43;;;;;;;0.93;0.32;;;10.00;99.90;;;;;;4955299;28;20024;-74
2023/12/31 07:23:08;;;;;;;1.80;0.40;;;9.90;99.90;;;;;;4946762;28;20047;-74
2023/12/31 07:25:34;;;;;;;1.35;0.35;;;10.00;99.90;;;;;;4951094;28;20363;-72
2023/12/31 07:28:00;;;;;;;1.13;0.50;;;10.00;99.90;;;;;;4956663;28;20486;-74
2023/12/31 07:30:25;;;;;;;0.93;0.63;;;10.10;99.90;;;;;;4948918;28;20090;-73
2023/12/31 07:32:51;;;;;;;3.35;0.45;;;10.10;99.90;;;;;;4953744;28;20550;-73
2023/12/31 07:35:17;;;;;;;1.02;0.43;;;10.00;99.90;;;;;;4946729;28;20058;-73
2023/12/31 07:37:43;;;;;;;1.63;0.70;;;9.90;99.90;;;;;;4961479;28;20448;-73
2023/12/31 07:40:10;;;;;;;1.20;0.70;;;9.80;99.90;;;;;;4967312;28;20074;-73
2023/12/31 07:42:37;;;;;;;1.00;0.47;;;9.70;99.90;;;;;;4954970;28;20035;-74
2023/12/31 07:45:04;;;;;;;1.17;0.52;;;9.60;99.90;;;;;;4953563;28;20270;-73
2023/12/31 07:47:31;;;;;;;0.88;0.50;;;9.50;99.90;;;;;;4946246;28;20035;-73
2023/12/31 07:49:57;;;;;;;1.75;0.63;;;9.50;99.90;;;;;;4949028;28;20027;-73
2023/12/31 07:52:23;;;;;;;2.45;0.95;;;9.40;99.90;;;;;;4946904;28;20114;-74
2023/12/31 07:54:48;;;;;;;1.13;0.50;;;9.40;99.90;;;;;;4949264;28;20062;-72
2023/12/31 07:57:14;;;;;;;2.30;0.57;;;9.40;99.90;;;;;;4951564;28;20043;-73
2023/12/31 07:59:39;;;;;;;0.60;0.40;;;9.30;99.90;;;;;;4954831;28;20454;-73
2023/12/31 08:02:05;;;;;;;1.38;0.60;;;9.40;99.90;;;;;;4961659;28;20043;-72
2023/12/31 08:04:31;;;;;;;3.28;0.98;;;9.40;99.90;;;;;;4964845;28;20089;-73
2023/12/31 08:06:57;;;;;;;3.35;0.90;;;9.30;99.90;;;;;;4962968;28;20031;-74
2023/12/31 08:09:23;;;;;;;1.38;0.68;;;9.30;99.90;;;;;;4945122;28;20512;-73
2023/12/31 08:11:48;;;;;;;7.50;0.77;;;9.30;99.90;;;;;;4927555;29;20035;-74
2023/12/31 08:14:14;;;;;;;1.23;0.60;;;9.30;99.90;;;;;;4926095;28;20492;-74
2023/12/31 08:16:40;;;;;;;2.17;0.70;;;9.30;99.90;;;;;;4957073;28;20034;-73
2023/12/31 08:19:05;;;;;;;2.75;0.50;;;9.30;99.90;;;;;;4958323;28;20066;-75
2023/12/31 08:21:31;;;;;;;1.20;0.60;;;9.40;99.90;;;;;;4960907;28;20092;-73
2023/12/31 08:23:57;;;;;;;1.60;0.52;;;9.40;99.90;;;;;;4956494;28;20058;-73
2023/12/31 08:26:23;;;;;;;8.63;1.10;;;9.40;99.90;;;;;;4944022;28;20075;-74
2023/12/31 08:28:49;;;;;;;2.35;0.40;;;9.50;99.90;;;;;;4951993;28;20039;-73
2023/12/31 08:31:15;;;;;;;0.60;0.30;;;9.50;99.90;;;;;;4965663;28;20035;-72
2023/12/31 08:33:42;;;;;;;2.15;0.90;;;9.60;99.90;;;;;;4954888;28;20024;-73
2023/12/31 08:36:07;;;;;;;2.03;0.70;;;9.70;99.90;;;;;;4952449;28;20093;-73
2023/12/31 08:38:33;;;;;;;2.83;0.55;;;9.70;99.90;;;;;;4955136;28;20676;-74
2023/12/31 08:40:59;;;;;;;1.40;0.80;;;9.70;99.90;;;;;;4955464;28;20039;-73
2023/12/31 08:43:25;;;;;;;1.48;0.52;;;9.60;99.90;;;;;;4948617;28;20038;-73
2023/12/31 08:45:51;;;;;;;2.47;0.60;;;9.60;99.90;;;;;;4946943;28;20035;-72
2023/12/31 08:48:18;;;;;;;0.70;0.40;;;9.60;99.90;;;;;;4950563;28;20019;-75
2023/12/31 08:50:44;;;;;;;4.25;0.82;;;9.50;99.90;;;;;;4947649;28;20433;-72
2023/12/31 08:53:10;;;;;;;1.40;0.77;;;9.50;99.90;;;;;;4958506;28;20031;-74
2023/12/31 08:55:36;;;;;;;1.48;0.65;;;9.40;99.90;;;;;;4967770;28;20506;-74
2023/12/31 08:58:02;;;;;;;1.73;0.60;;;9.40;99.90;;;;;;4954472;28;20027;-74
2023/12/31 09:00:27;;;;;;;3.40;0.90;;;9.40;99.90;;;;;;4951965;28;20035;-73
2023/12/31 09:02:54;;;;;;;3.65;0.70;;;9.30;99.90;;;;;;4953105;28;20059;-73
2023/12/31 09:05:20;;;;;;;1.30;0.55;;;9.30;99.90;;;;;;4962470;28;20030;-75
2023/12/31 09:07:45;;;;;;;1.52;0.73;;;9.20;99.90;;;;;;4948263;28;20086;-73
2023/12/31 09:10:11;;;;;;;1.55;0.20;;;9.10;99.90;;;;;;4936459;28;20086;-74
2023/12/31 09:12:37;;;;;;;1.60;0.50;;;9.00;99.90;;;;;;4954024;28;20043;-73
2023/12/31 09:15:04;;;;;;;6.88;1.13;;;8.80;99.90;;;;;;4952968;28;20027;-74
2023/12/31 09:17:30;;;;;;;1.40;0.30;;;8.60;99.90;;;;;;4959804;28;20491;-74
2023/12/31 09:19:58;;;;;;;3.70;0.93;;;8.40;99.90;;;;;;4964566;28;20035;-74
2023/12/31 09:22:24;;;;;;;0.95;0.32;;;8.40;99.90;;;;;;4961241;28;20039;-74
2023/12/31 09:24:51;;;;;;;0.52;0.20;;;8.30;99.90;;;;;;4960319;28;20094;-73
2023/12/31 09:27:18;;;;;;;6.03;0.20;;;8.30;99.90;;;;;;4957603;28;20024;-73
2023/12/31 09:29:44;;;;;;;1.15;0.25;;;8.30;99.90;;;;;;4954040;28;20054;-74
2023/12/31 09:32:10;;;;;;;0.63;0.30;;;8.30;99.90;;;;;;4950697;28;20867;-73
2023/12/31 09:34:35;;;;;;;2.63;0.20;;;8.30;99.90;;;;;;4950993;28;20110;-73
2023/12/31 09:37:01;;;;;;;2.42;0.20;;;8.20;99.90;;;;;;4950685;28;20070;-73
2023/12/31 09:39:26;;;;;;;1.60;0.10;;;8.30;99.90;;;;;;4957149;28;20050;-73
2023/12/31 09:41:53;;;;;;;1.33;0.22;;;8.20;99.90;;;;;;4962598;28;20085;-73
2023/12/31 09:44:19;;;;;;;1.40;0.20;;;8.10;99.90;;;;;;4951534;28;20035;-74
2023/12/31 09:47:03;;;;;;;4.93;0.20;;;8.20;99.90;;;;;;4948761;29;20396;-73
2023/12/31 09:49:31;;;;;;;0.32;0.10;;;8.20;99.90;;;;;;4953863;28;20134;-74
2023/12/31 09:51:59;;;;;;;1.38;0.10;;;8.10;99.90;;;;;;4957157;28;20083;-73
2023/12/31 09:54:25;;;;;;;0.45;0.17;;;8.10;99.90;;;;;;4947498;28;20047;-73
2023/12/31 09:56:52;;;;;;;0.50;0.20;;;8.00;99.90;;;;;;4948260;28;20110;-73
2023/12/31 09:59:20;;;;;;;1.70;0.15;;;8.10;99.90;;;;;;4952746;28;20031;-72
2023/12/31 10:01:46;;;;;;;0.22;0.05;;;8.00;99.90;;;;;;4950947;28;20043;-72
2023/12/31 10:04:12;;;;;;;1.17;0.20;;;8.00;99.90;;;;;;4955311;28;20109;-72
2023/12/31 10:06:39;;;;;;;2.05;0.10;;;8.00;99.90;;;;;;4960980;28;20086;-72
2023/12/31 10:09:07;;;;;;;2.35;0.40;;;8.10;99.90;;;;;;4957524;28;20090;-72
2023/12/31 10:11:33;;;;;;;2.30;0.30;;;8.10;99.90;;;;;;4953389;28;20027;-73
2023/12/31 10:13:59;;;;;;;1.23;0.10;;;8.20;99.90;;;;;;4949888;28;20153;-72
2023/12/31 10:16:34;;;;;;;1.30;0.20;;;8.20;99.90;;;;;;4953092;28;20094;-73
2023/12/31 10:19:00;;;;;;;3.65;0.20;;;8.30;99.90;;;;;;4949612;28;20074;-73
2023/12/31 10:21:26;;;;;;;0.63;0.20;;;8.40;99.90;;;;;;4953922;28;20070;-72
2023/12/31 10:23:52;;;;;;;1.63;0.30;;;8.50;99.90;;;;;;4959104;28;20762;-72
2023/12/31 10:26:18;;;;;;;2.70;0.40;;;8.50;99.90;;;;;;4957964;28;20053;-72
2023/12/31 10:28:43;;;;;;;2.03;0.60;;;8.60;99.90;;;;;;4962867;28;20443;-72
2023/12/31 10:31:10;;;;;;;0.90;0.43;;;8.70;99.90;;;;;;4966780;28;20027;-72
2023/12/31 10:33:37;;;;;;;2.25;0.43;;;8.70;99.90;;;;;;4951858;28;20388;-73
2023/12/31 10:36:06;;;;;;;1.23;0.30;;;8.70;99.90;;;;;;4959627;28;20046;-72
2023/12/31 10:38:48;;;;;;;1.05;0.32;;;8.70;99.90;;;;;;4953596;28;20043;-72
2023/12/31 10:41:22;;;;;;;0.68;0.30;;;8.80;99.90;;;;;;4948532;28;20589;-72
2023/12/31 10:43:48;;;;;;;0.82;0.17;;;8.70;99.90;;;;;;4960727;28;20649;-71
2023/12/31 10:46:15;;;;;;;0.35;0.20;;;8.80;99.90;;;;;;4962091;28;20051;-72
2023/12/31 10:48:48;;;;;;;0.85;0.43;;;8.80;99.90;;;;;;4958615;28;20504;-72
2023/12/31 10:51:22;;;;;;;0.90;0.40;;;8.90;99.90;;;;;;4946587;28;20071;-73
2023/12/31 10:53:51;;;;;;;1.70;0.40;;;8.90;99.90;;;;;;4951529;28;20038;-72
2023/12/31 10:56:18;;;;;;;2.97;0.50;;;8.90;99.90;;;;;;4940636;28;20043;-72
2023/12/31 10:58:45;;;;;;;3.83;1.27;;;9.00;99.90;;;;;;4947445;28;20031;-72
2023/12/31 11:01:11;;;;;;;1.50;0.52;;;9.00;99.90;;;;;;4949778;28;20062;-72
2023/12/31 11:03:40;;;;;;;3.42;1.23;;;9.00;99.90;;;;;;4949261;28;20043;-73
2023/12/31 11:06:06;;;;;;;6.57;3.17;;;9.00;99.90;;;;;;4947617;28;20026;-74
2023/12/31 11:08:34;;;;;;;3.38;1.55;;;9.00;99.90;;;;;;4946928;28;20027;-71
2023/12/31 11:11:00;;;;;;;1.85;0.45;;;9.00;99.90;;;;;;4946015;28;20058;-72
2023/12/31 11:13:27;;;;;;;0.47;0.28;;;9.00;99.90;;;;;;4945841;28;20039;-71
2023/12/31 11:15:55;;;;;;;1.02;0.00;;;8.80;99.90;;;;;;4952657;28;20035;-71
2023/12/31 11:19:02;;;;;;;0.10;0.10;;;8.70;99.90;;;;;;4945320;28;20043;-72
2023/12/31 11:21:47;;;;;;;0.80;0.10;;;8.60;99.90;;;;;;4926979;28;20388;-72
2023/12/31 11:24:16;;;;;;;2.72;0.05;;;8.50;99.90;;;;;;4959417;28;20035;-72
2023/12/31 11:26:42;;;;;;;0.50;0.10;;;8.30;99.90;;;;;;4952643;28;20065;-73
2023/12/31 11:29:09;;;;;;;4.70;0.40;;;8.20;99.90;;;;;;4955608;28;20435;-74
2023/12/31 11:31:40;;;;;;;1.05;0.20;;;8.10;99.90;;;;;;4945654;28;20074;-73
2023/12/31 11:34:05;;;;;;;1.00;0.40;;;8.00;99.90;;;;;;4953774;28;20042;-73
2023/12/31 11:36:31;;;;;;;0.82;0.22;;;8.00;99.90;;;;;;4943930;28;20042;-73
2023/12/31 11:39:00;;;;;;;0.93;0.28;;;7.90;99.90;;;;;;4961720;28;20093;-73
2023/12/31 11:41:31;;;;;;;2.13;0.82;;;7.90;99.90;;;;;;4958082;28;20045;-73
2023/12/31 11:43:57;;;;;;;4.13;1.00;;;7.90;99.90;;;;;;4950118;28;20455;-73
2023/12/31 11:46:35;;;;;;;1.95;0.43;;;7.90;99.90;;;;;;4950089;28;20069;-72
2023/12/31 11:49:01;;;;;;;2.05;0.50;;;7.90;99.90;;;;;;4954149;28;20070;-74
2023/12/31 11:51:55;;;;;;;1.73;0.25;;;7.80;99.90;;;;;;4956104;28;24703;-72
2023/12/31 11:54:38;;;;;;;7.00;2.80;;;7.80;99.90;;;;;;4924935;29;20563;-73
2023/12/31 11:57:04;;;;;;;5.00;1.27;;;7.80;99.90;;;;;;4940094;28;20399;-73
2023/12/31 11:59:34;;;;;;;2.35;0.40;;;7.80;99.90;;;;;;4944974;28;20050;-72
2023/12/31 12:02:03;;;;;;;1.97;0.40;;;7.90;99.90;;;;;;4944573;28;20051;-73
2023/12/31 12:04:29;;;;;;;4.00;0.40;;;8.00;99.90;;;;;;4948306;28;20374;-72
2023/12/31 12:06:55;;;;;;;5.72;0.70;;;8.10;99.90;;;;;;4946053;28;20546;-74
2023/12/31 12:09:29;;;;;;;1.13;0.35;;;8.10;99.90;;;;;;4949742;28;20097;-75
2023/12/31 12:12:02;;;;;;;1.52;0.20;;;8.20;99.90;;;;;;4940229;28;20036;-74
2023/12/31 12:14:29;;;;;;;2.63;0.40;;;8.20;99.90;;;;;;4943879;28;20063;-74
2023/12/31 12:16:55;;;;;;;6.50;0.30;;;8.20;99.90;;;;;;4960176;28;20502;-71
2023/12/31 12:19:22;;;;;;;4.40;0.40;;;8.30;99.90;;;;;;4957251;28;20082;-75
2023/12/31 12:21:48;;;;;;;5.28;1.85;;;8.40;99.90;;;;;;4960139;28;20046;-73
2023/12/31 12:24:14;;;;;;;3.75;1.20;;;8.50;99.90;;;;;;4945914;28;20098;-72
2023/12/31 12:26:40;;;;;;;4.18;1.02;;;8.50;99.90;;;;;;4955659;28;20113;-71
2023/12/31 12:29:09;;;;;;;3.88;0.40;;;8.60;99.90;;;;;;4956868;28;20109;-72
2023/12/31 12:31:35;;;;;;;6.97;0.50;;;8.70;99.90;;;;;;4958256;28;20480;-72
2023/12/31 12:34:03;;;;;;;4.78;0.65;;;8.80;99.90;;;;;;4961473;28;20035;-73
2023/12/31 12:36:30;;;;;;;1.42;0.40;;;8.90;99.90;;;;;;4948745;28;20102;-73
2023/12/31 12:39:01;;;;;;;6.85;0.95;;;8.80;99.90;;;;;;4956620;28;20478;-72
2023/12/31 12:41:31;;;;;;;3.70;1.02;;;8.90;99.90;;;;;;4953695;28;20119;-71
2023/12/31 12:43:57;;;;;;;6.40;1.67;;;8.90;99.90;;;;;;4956300;28;20082;-74
2023/12/31 12:46:28;;;;;;;2.15;0.32;;;8.90;99.90;;;;;;4959209;28;20074;-72
2023/12/31 12:48:53;;;;;;;8.15;1.05;;;8.90;99.90;;;;;;4964072;28;20458;-72
2023/12/31 12:51:19;;;;;;;4.07;0.40;;;8.90;99.90;;;;;;4960291;28;20092;-73
2023/12/31 12:53:45;;;;;;;2.33;0.52;;;8.90;99.90;;;;;;4961665;28;20541;-73